WSSS METAR and TAF | Updated Today

WSSS METAR

Singapore Changi Airport

Observation time: 14 min. ago

WSSS 010730Z VRB04KT 9999 FEW018 FEW020TCU SCT080 30/25 Q1008 NOSIG

Need help? Read our tutorial on how to read METARs or read the parsed version below.

Singapore Changi Airport (WSSS) METAR

  • Weather conditions on Sat, 01 Oct 2022 07:30:00 +0000 (14 min. ago):
  • Present conditions: Dry
  • Clouds: A few at 549 meters; a few at 610 meters, towering cumulus; scattered at 2438 meters
  • Visibility: Greater than 10 km
  • Wind: Variable at 4 knots
  • Temperature: 30 celsius
  • Dew point: 25 celsius
  • Pressure: 1008 millibars
  • Remarks: None


Useful to know...

WSSS TAF

Singapore Changi Airport

TAF WSSS 010500Z 0106/0212 04005KT 9999 FEW015 BKN020 TEMPO 0106/0109 3000 TSRA FEW012CB BKN015
Observation time: 2:44 hr. ago
Need help? Read our tutorial on how to read TAFs or read the parsed version below.

Parsed version of TAF for Singapore Changi Airport (WSSS)

  • From 01 October at 06:00 UTC, to day 02 of the month at 12:00 UTC
  • Clouds: A few at 457 meters; broken sky at 610 meters
  • Visibility: Greater than 10 km
  • Wind: 40 degrees at 5
  • Expected to arise temporarily, from 01 October at 06:00 UTC, to day 01 of the month at 09:00 UTC
  • Clouds: A few at 366 meters, cumulonimbus; broken sky at 457 meters
  • Visibility: 3000 meters
  • Other: Thunderstorms rain